Time;durP1;ratioP1;P1;durP2;ratioP2;P2;SDS_P1;SDS_P2;PMS_P1;PMS_P2;Temp;Humidity;BMP_temperature;BMP_pressure;BME280_temperature;BME280_humidity;BME280_pressure;Samples;Min_cycle;Max_cycle;Signal;HPM_P1;HPM_P2
2022/07/25 00:01:02;;;;;;;3.38;2.50;;;22.20;65.30;;;;;;5032334;28;20020;-66
2022/07/25 00:03:28;;;;;;;3.53;2.67;;;22.20;65.30;;;;;;5033133;28;20431;-66
2022/07/25 00:05:54;;;;;;;4.53;2.25;;;22.20;65.40;;;;;;5029933;28;20057;-67
2022/07/25 00:08:19;;;;;;;2.65;1.92;;;22.20;65.40;;;;;;5032662;28;20072;-66
2022/07/25 00:10:45;;;;;;;3.28;2.17;;;22.10;65.40;;;;;;5031445;28;20100;-66
2022/07/25 00:13:10;;;;;;;6.57;2.88;;;22.10;65.60;;;;;;5033622;28;20353;-67
2022/07/25 00:15:37;;;;;;;5.18;2.92;;;22.10;65.60;;;;;;5032060;28;20473;-67
2022/07/25 00:18:03;;;;;;;3.60;2.50;;;22.10;65.70;;;;;;5033448;28;20598;-67
2022/07/25 00:20:28;;;;;;;3.00;2.35;;;22.10;66.00;;;;;;5033070;28;20112;-66
2022/07/25 00:22:54;;;;;;;4.30;2.55;;;22.00;65.70;;;;;;5030932;28;20163;-67
2022/07/25 00:25:19;;;;;;;3.05;2.50;;;22.00;65.60;;;;;;5032633;28;20034;-66
2022/07/25 00:27:45;;;;;;;3.25;2.33;;;22.00;65.60;;;;;;5032232;28;20484;-66
2022/07/25 00:30:11;;;;;;;2.90;2.40;;;22.00;65.70;;;;;;5031338;28;20022;-67
2022/07/25 00:32:37;;;;;;;2.25;1.80;;;22.00;65.60;;;;;;5032495;28;20025;-66
2022/07/25 00:35:03;;;;;;;3.03;1.95;;;21.90;65.90;;;;;;5033063;28;20369;-66
2022/07/25 00:37:28;;;;;;;3.35;2.05;;;21.90;66.00;;;;;;5032177;28;20437;-66
2022/07/25 00:39:54;;;;;;;3.50;2.28;;;21.90;65.90;;;;;;5029994;28;20029;-66
2022/07/25 00:42:20;;;;;;;3.45;2.40;;;21.80;65.80;;;;;;5030652;28;20440;-66
2022/07/25 00:44:46;;;;;;;2.88;2.08;;;21.80;65.90;;;;;;5031777;28;20040;-66
2022/07/25 00:47:11;;;;;;;3.50;2.10;;;21.80;65.90;;;;;;5030489;28;20400;-67
2022/07/25 00:49:37;;;;;;;3.45;2.13;;;21.80;66.10;;;;;;5032035;28;20454;-67
2022/07/25 00:52:05;;;;;;;3.65;2.10;;;21.80;66.20;;;;;;5032059;28;20080;-67
2022/07/25 00:54:31;;;;;;;3.95;2.00;;;21.80;66.20;;;;;;5032489;28;20100;-66
2022/07/25 00:56:57;;;;;;;3.35;2.10;;;21.70;66.30;;;;;;5032059;28;20061;-67
2022/07/25 00:59:23;;;;;;;3.47;2.28;;;21.70;66.30;;;;;;5032138;28;20061;-67
2022/07/25 01:01:49;;;;;;;3.58;2.50;;;21.70;66.60;;;;;;5031686;28;20026;-66
2022/07/25 01:04:15;;;;;;;3.40;2.08;;;21.70;66.60;;;;;;5031149;28;20045;-67
2022/07/25 01:06:41;;;;;;;2.78;2.10;;;21.70;66.90;;;;;;5031180;28;20500;-67
2022/07/25 01:09:07;;;;;;;3.33;2.60;;;21.70;67.30;;;;;;5031703;28;20072;-67
2022/07/25 01:11:33;;;;;;;3.58;2.10;;;21.60;67.50;;;;;;5032251;28;20362;-66
2022/07/25 01:13:58;;;;;;;2.88;2.38;;;21.60;67.50;;;;;;5032952;28;20021;-66
2022/07/25 01:16:24;;;;;;;4.00;2.67;;;21.60;67.60;;;;;;5030654;28;20096;-66
2022/07/25 01:18:50;;;;;;;4.13;2.22;;;21.60;67.90;;;;;;5031954;28;20033;-66
2022/07/25 01:21:15;;;;;;;4.43;2.00;;;21.60;68.00;;;;;;5030850;28;20428;-67
2022/07/25 01:23:41;;;;;;;3.63;2.22;;;21.60;68.10;;;;;;5032356;28;20033;-66
2022/07/25 01:26:07;;;;;;;3.28;2.30;;;21.50;68.20;;;;;;5029708;28;20484;-67
2022/07/25 01:28:33;;;;;;;4.15;2.10;;;21.50;68.20;;;;;;5031485;28;20499;-66
2022/07/25 01:30:58;;;;;;;2.70;2.00;;;21.50;68.20;;;;;;5031356;28;20171;-66
2022/07/25 01:33:24;;;;;;;3.72;2.50;;;21.50;68.50;;;;;;5032093;28;20488;-66
2022/07/25 01:35:50;;;;;;;4.00;2.45;;;21.50;68.40;;;;;;5028797;28;20493;-67
2022/07/25 01:38:16;;;;;;;3.45;2.45;;;21.40;68.50;;;;;;5031324;28;20017;-66
2022/07/25 01:40:44;;;;;;;2.83;2.10;;;21.40;68.50;;;;;;5030409;28;20026;-66
2022/07/25 01:43:11;;;;;;;2.85;2.10;;;21.40;68.50;;;;;;5031273;28;20022;-67
2022/07/25 01:45:37;;;;;;;3.00;2.47;;;21.40;68.60;;;;;;5030126;28;20045;-67
2022/07/25 01:48:03;;;;;;;4.07;2.40;;;21.40;68.70;;;;;;5031606;28;20026;-66
2022/07/25 01:50:29;;;;;;;2.80;2.15;;;21.30;68.80;;;;;;5029104;28;20116;-67
2022/07/25 01:52:54;;;;;;;2.97;2.35;;;21.30;69.50;;;;;;5030994;28;20121;-65
2022/07/25 01:55:21;;;;;;;2.85;2.10;;;21.30;69.00;;;;;;5030927;28;20465;-66
2022/07/25 01:57:47;;;;;;;3.78;2.47;;;21.30;68.90;;;;;;5031654;28;20026;-66
2022/07/25 02:00:14;;;;;;;3.03;2.13;;;21.30;68.80;;;;;;5029248;28;20024;-66
2022/07/25 02:02:41;;;;;;;2.35;1.95;;;21.20;69.00;;;;;;5021986;28;20060;-66
2022/07/25 02:05:07;;;;;;;4.45;2.35;;;21.20;69.20;;;;;;5030362;28;20049;-66
2022/07/25 02:07:33;;;;;;;3.47;2.30;;;21.20;69.30;;;;;;5031089;28;20472;-66
2022/07/25 02:09:59;;;;;;;4.13;2.20;;;21.20;69.20;;;;;;5031193;28;20033;-65
2022/07/25 02:12:25;;;;;;;3.30;2.20;;;21.20;69.30;;;;;;5030281;28;20021;-66
2022/07/25 02:14:50;;;;;;;2.70;2.00;;;21.10;69.40;;;;;;5030769;28;20025;-66
2022/07/25 02:17:16;;;;;;;2.72;2.10;;;21.10;69.50;;;;;;5042356;28;20087;-66
2022/07/25 02:19:42;;;;;;;3.05;2.40;;;21.10;69.80;;;;;;5030134;28;20045;-66
2022/07/25 02:22:07;;;;;;;2.72;2.15;;;21.10;69.50;;;;;;5031412;28;20045;-65
2022/07/25 02:24:33;;;;;;;3.08;2.13;;;21.10;69.50;;;;;;5030384;28;20026;-66
2022/07/25 02:26:58;;;;;;;3.08;2.28;;;21.00;69.40;;;;;;5031211;28;20056;-66
2022/07/25 02:29:24;;;;;;;3.00;2.20;;;21.00;69.50;;;;;;5030020;28;20100;-65
2022/07/25 02:31:51;;;;;;;2.70;2.17;;;21.00;69.70;;;;;;5031358;28;20033;-65
2022/07/25 02:34:17;;;;;;;2.75;2.03;;;20.90;69.70;;;;;;5029331;28;20017;-65
2022/07/25 02:36:44;;;;;;;3.13;2.45;;;21.00;69.90;;;;;;5030965;28;20042;-65
2022/07/25 02:39:10;;;;;;;2.65;2.05;;;20.90;69.80;;;;;;5030436;28;20472;-65
2022/07/25 02:41:36;;;;;;;2.85;2.28;;;20.90;69.90;;;;;;5030545;28;20038;-66
2022/07/25 02:44:03;;;;;;;3.15;2.38;;;20.90;69.90;;;;;;5030334;28;20030;-66
2022/07/25 02:46:29;;;;;;;3.03;2.20;;;20.90;70.20;;;;;;5030035;28;20156;-66
2022/07/25 02:48:55;;;;;;;3.30;2.28;;;20.80;69.90;;;;;;5032227;28;20100;-66
2022/07/25 02:51:20;;;;;;;2.72;2.03;;;20.80;70.00;;;;;;5034575;28;20025;-66
2022/07/25 02:53:46;;;;;;;3.35;2.35;;;20.80;70.00;;;;;;5034749;28;20025;-66
2022/07/25 02:56:11;;;;;;;3.63;2.47;;;20.80;70.10;;;;;;5034698;28;20607;-66
2022/07/25 02:58:37;;;;;;;3.85;2.67;;;20.70;70.30;;;;;;5034409;28;20160;-67
2022/07/25 03:01:03;;;;;;;2.70;2.10;;;20.70;70.20;;;;;;5032766;28;20039;-65
2022/07/25 03:03:29;;;;;;;4.43;2.05;;;20.70;70.40;;;;;;5032583;28;20028;-66
2022/07/25 03:05:55;;;;;;;3.05;2.20;;;20.70;70.60;;;;;;5032740;28;20045;-65
2022/07/25 03:08:20;;;;;;;3.88;2.25;;;20.60;70.40;;;;;;5034592;28;20018;-65
2022/07/25 03:10:46;;;;;;;3.67;2.53;;;20.70;70.60;;;;;;5033659;28;20092;-65
2022/07/25 03:13:11;;;;;;;3.58;2.47;;;20.60;70.50;;;;;;5033059;28;20025;-65
2022/07/25 03:15:37;;;;;;;3.50;2.10;;;20.60;70.50;;;;;;5033909;28;20357;-65
2022/07/25 03:18:03;;;;;;;3.28;2.53;;;20.60;70.70;;;;;;5033154;28;20021;-66
2022/07/25 03:20:28;;;;;;;3.40;2.28;;;20.60;70.70;;;;;;5031835;28;20033;-66
2022/07/25 03:22:54;;;;;;;4.68;2.70;;;20.60;70.80;;;;;;5034149;28;20060;-66
2022/07/25 03:25:19;;;;;;;3.60;2.50;;;20.60;70.90;;;;;;5031328;28;20030;-66
2022/07/25 03:27:45;;;;;;;3.33;2.45;;;20.50;70.80;;;;;;5034566;28;20040;-65
2022/07/25 03:30:11;;;;;;;2.88;2.30;;;20.50;70.80;;;;;;5032695;28;20036;-65
2022/07/25 03:32:37;;;;;;;5.95;2.15;;;20.50;70.90;;;;;;5035850;28;20059;-65
2022/07/25 03:35:04;;;;;;;3.70;2.97;;;20.50;70.90;;;;;;5035496;28;20029;-65
2022/07/25 03:37:29;;;;;;;2.47;2.15;;;20.50;71.30;;;;;;5033437;28;20037;-66
2022/07/25 03:39:55;;;;;;;3.30;2.40;;;20.50;71.30;;;;;;5032698;28;20033;-65
2022/07/25 03:42:22;;;;;;;3.45;2.53;;;20.50;71.20;;;;;;5034090;28;20108;-66
2022/07/25 03:44:48;;;;;;;2.95;2.10;;;20.50;71.30;;;;;;5032465;28;20029;-66
2022/07/25 03:47:15;;;;;;;2.97;2.35;;;20.50;71.50;;;;;;5031797;28;20049;-66
2022/07/25 03:49:40;;;;;;;3.03;2.30;;;20.50;71.70;;;;;;5032887;28;20041;-65
2022/07/25 03:52:06;;;;;;;3.15;2.30;;;20.50;71.70;;;;;;5033962;28;20025;-66
2022/07/25 03:54:32;;;;;;;3.63;2.20;;;20.50;71.60;;;;;;5021709;28;20025;-66
2022/07/25 03:56:57;;;;;;;4.20;2.42;;;20.50;72.00;;;;;;5028439;28;20116;-66
2022/07/25 03:59:23;;;;;;;4.03;2.60;;;20.50;72.00;;;;;;5027926;28;20091;-66
2022/07/25 04:01:50;;;;;;;3.58;2.40;;;20.50;71.50;;;;;;5031637;28;20068;-67
2022/07/25 04:04:16;;;;;;;4.53;2.53;;;20.50;71.90;;;;;;5032550;28;20540;-67
2022/07/25 04:06:44;;;;;;;3.25;2.30;;;20.50;71.70;;;;;;5032644;28;20103;-66
2022/07/25 04:09:10;;;;;;;3.33;2.28;;;20.50;71.90;;;;;;5032397;28;20021;-66
2022/07/25 04:11:37;;;;;;;3.55;2.50;;;20.50;71.60;;;;;;5032716;28;20551;-66
2022/07/25 04:14:03;;;;;;;3.55;2.30;;;20.50;71.50;;;;;;5022778;28;20503;-66
2022/07/25 04:16:29;;;;;;;3.47;2.30;;;20.50;72.00;;;;;;5033200;28;20028;-66
2022/07/25 04:18:56;;;;;;;5.63;2.60;;;20.50;72.10;;;;;;5032734;28;20029;-66
2022/07/25 04:21:22;;;;;;;3.03;2.30;;;20.50;71.80;;;;;;5032916;28;20079;-66
2022/07/25 04:23:48;;;;;;;3.30;2.63;;;20.50;71.80;;;;;;5031826;28;20116;-66
2022/07/25 04:26:14;;;;;;;4.20;2.80;;;20.50;71.80;;;;;;5032651;28;20121;-66
2022/07/25 04:28:39;;;;;;;5.25;2.67;;;20.50;72.00;;;;;;5031616;28;20092;-66
2022/07/25 04:31:05;;;;;;;3.05;2.30;;;20.60;72.20;;;;;;5033215;28;20025;-67
2022/07/25 04:33:31;;;;;;;3.20;2.33;;;20.60;72.00;;;;;;5033464;28;20083;-67
2022/07/25 04:35:56;;;;;;;3.25;2.40;;;20.60;72.30;;;;;;5032397;28;20029;-66
2022/07/25 04:38:22;;;;;;;4.38;2.53;;;20.60;72.20;;;;;;5032993;28;20099;-66
2022/07/25 04:40:47;;;;;;;3.85;2.80;;;20.70;72.20;;;;;;5031145;28;20507;-67
2022/07/25 04:43:13;;;;;;;3.72;2.25;;;20.70;71.80;;;;;;5032144;28;20052;-67
2022/07/25 04:45:39;;;;;;;6.03;2.40;;;20.70;72.10;;;;;;5030878;28;20092;-67
2022/07/25 04:48:05;;;;;;;3.47;2.40;;;20.70;72.10;;;;;;5032870;28;20021;-67
2022/07/25 04:50:32;;;;;;;7.15;3.10;;;20.70;71.70;;;;;;5026165;28;20029;-66
2022/07/25 04:52:58;;;;;;;6.00;2.90;;;20.80;71.70;;;;;;5032986;28;20025;-67
2022/07/25 04:55:23;;;;;;;4.35;2.50;;;20.80;71.30;;;;;;5031527;28;20078;-66
2022/07/25 04:57:49;;;;;;;4.18;2.20;;;20.80;71.40;;;;;;5032171;28;20096;-66
2022/07/25 05:00:15;;;;;;;4.75;2.58;;;20.80;71.50;;;;;;5026455;28;20039;-66
2022/07/25 05:02:41;;;;;;;3.20;2.30;;;20.90;71.20;;;;;;5032986;28;20425;-66
2022/07/25 05:05:08;;;;;;;3.50;2.15;;;20.90;71.00;;;;;;5031473;28;20497;-66
2022/07/25 05:07:35;;;;;;;3.28;2.15;;;20.90;70.90;;;;;;5031691;28;20393;-66
2022/07/25 05:10:01;;;;;;;5.28;2.38;;;21.00;71.10;;;;;;5028972;28;20051;-66
2022/07/25 05:12:27;;;;;;;3.95;2.40;;;21.10;71.30;;;;;;5030919;28;20025;-68
2022/07/25 05:14:53;;;;;;;3.47;2.38;;;21.10;70.90;;;;;;5031154;28;20111;-67
2022/07/25 05:17:19;;;;;;;5.15;2.53;;;21.20;70.80;;;;;;5032390;28;20443;-66
2022/07/25 05:19:46;;;;;;;4.18;2.28;;;21.20;70.50;;;;;;5029748;28;20033;-66
2022/07/25 05:22:12;;;;;;;4.70;2.33;;;21.30;70.70;;;;;;5030932;28;20636;-68
2022/07/25 05:24:38;;;;;;;4.13;2.30;;;21.30;70.40;;;;;;5011348;28;20064;-66
2022/07/25 05:27:04;;;;;;;4.25;2.17;;;21.40;70.30;;;;;;5011887;28;20022;-66
2022/07/25 05:29:30;;;;;;;3.20;2.17;;;21.40;70.40;;;;;;5010673;28;20060;-66
2022/07/25 05:31:56;;;;;;;5.03;2.35;;;21.50;70.30;;;;;;5013278;28;20038;-66
2022/07/25 05:34:22;;;;;;;5.28;3.17;;;21.60;69.80;;;;;;5013166;28;20079;-66
2022/07/25 05:36:48;;;;;;;3.50;2.20;;;21.60;69.60;;;;;;5013998;28;20042;-66
2022/07/25 05:39:15;;;;;;;5.78;2.30;;;21.70;70.10;;;;;;5014156;28;20516;-67
2022/07/25 05:41:41;;;;;;;5.70;2.70;;;21.80;70.20;;;;;;5015204;28;20030;-67
2022/07/25 05:44:06;;;;;;;3.92;2.35;;;21.80;69.40;;;;;;5013307;28;20029;-67
2022/07/25 05:46:34;;;;;;;3.42;2.40;;;21.90;69.80;;;;;;5013941;28;20124;-67
2022/07/25 05:49:00;;;;;;;5.45;2.90;;;22.00;69.40;;;;;;5014942;28;20090;-67
2022/07/25 05:51:26;;;;;;;5.65;3.03;;;22.10;69.00;;;;;;5015447;28;20113;-66
2022/07/25 05:53:51;;;;;;;4.57;2.63;;;22.20;69.00;;;;;;5014669;28;20025;-67
2022/07/25 05:56:17;;;;;;;2.97;2.45;;;22.20;68.80;;;;;;5019479;28;20579;-66
2022/07/25 05:58:45;;;;;;;4.68;2.65;;;22.30;68.80;;;;;;5013865;28;20018;-66
2022/07/25 06:01:13;;;;;;;6.10;3.45;;;22.40;68.60;;;;;;5011506;28;20080;-66
2022/07/25 06:03:39;;;;;;;4.88;2.83;;;22.50;68.40;;;;;;5009007;28;20424;-67
2022/07/25 06:06:07;;;;;;;6.70;3.10;;;22.60;68.50;;;;;;5000645;28;20128;-67
2022/07/25 06:08:33;;;;;;;5.68;2.92;;;22.60;68.70;;;;;;5007889;28;20042;-67
2022/07/25 06:10:59;;;;;;;4.13;3.05;;;22.70;68.40;;;;;;5011342;28;20499;-68
2022/07/25 06:13:26;;;;;;;5.10;2.90;;;22.80;68.40;;;;;;5010190;28;20033;-65
2022/07/25 06:15:52;;;;;;;5.07;2.88;;;22.90;68.00;;;;;;5022457;28;20048;-66
2022/07/25 06:18:18;;;;;;;4.32;2.83;;;23.00;68.10;;;;;;5009942;28;20026;-66
2022/07/25 06:20:44;;;;;;;3.75;3.10;;;23.10;67.90;;;;;;5010621;28;20386;-66
2022/07/25 06:23:10;;;;;;;5.35;3.28;;;23.20;67.70;;;;;;5015754;28;20026;-66
2022/07/25 06:25:35;;;;;;;4.95;2.83;;;23.20;67.60;;;;;;5008057;28;20033;-66
2022/07/25 06:28:01;;;;;;;7.40;3.13;;;23.30;67.40;;;;;;5015477;28;20484;-66
2022/07/25 06:30:27;;;;;;;6.63;3.95;;;23.40;67.40;;;;;;5013787;28;20037;-66
2022/07/25 06:32:53;;;;;;;5.35;3.15;;;23.50;67.00;;;;;;5015198;28;20030;-66
2022/07/25 06:35:19;;;;;;;6.15;2.75;;;23.60;67.00;;;;;;5012512;28;20030;-66
2022/07/25 06:37:44;;;;;;;3.35;2.55;;;23.70;67.30;;;;;;5020698;28;20022;-65
2022/07/25 06:40:10;;;;;;;3.90;2.65;;;23.80;67.00;;;;;;5013493;28;20025;-66
2022/07/25 06:42:41;;;;;;;4.53;2.70;;;23.90;66.60;;;;;;5014948;28;20026;-66
2022/07/25 06:45:09;;;;;;;5.53;3.50;;;24.00;66.30;;;;;;5013589;28;20161;-66
2022/07/25 06:47:35;;;;;;;6.20;2.95;;;24.10;66.50;;;;;;5014135;28;20057;-66
2022/07/25 06:50:01;;;;;;;5.53;3.05;;;24.20;66.50;;;;;;5013954;28;20038;-66
2022/07/25 06:52:27;;;;;;;4.20;2.97;;;24.20;66.10;;;;;;5014505;28;20034;-66
2022/07/25 06:54:53;;;;;;;4.43;3.25;;;24.30;66.00;;;;;;5013947;28;20044;-66
2022/07/25 06:57:18;;;;;;;6.70;3.28;;;24.40;65.80;;;;;;5014220;28;20051;-66
2022/07/25 06:59:44;;;;;;;5.72;3.30;;;24.50;65.60;;;;;;5013796;28;20366;-65
2022/07/25 07:02:11;;;;;;;9.23;3.20;;;24.60;65.60;;;;;;5015168;28;20650;-66
2022/07/25 07:04:37;;;;;;;5.53;3.28;;;24.60;65.50;;;;;;5011769;28;20042;-66
2022/07/25 07:07:03;;;;;;;4.72;3.00;;;24.70;65.40;;;;;;5021079;28;20045;-66
2022/07/25 07:09:29;;;;;;;7.28;3.40;;;24.90;65.50;;;;;;5012979;28;20050;-67
2022/07/25 07:11:54;;;;;;;5.03;3.55;;;24.90;65.30;;;;;;5013249;28;20037;-67
2022/07/25 07:14:20;;;;;;;5.88;3.15;;;25.00;65.10;;;;;;5014645;28;20366;-65
2022/07/25 07:16:45;;;;;;;6.13;3.22;;;25.10;65.00;;;;;;5013851;28;20033;-65
2022/07/25 07:19:13;;;;;;;7.22;3.67;;;25.20;64.80;;;;;;5013814;28;20033;-65
2022/07/25 07:21:39;;;;;;;5.90;3.60;;;25.30;64.70;;;;;;5015736;28;20137;-65
2022/07/25 07:24:05;;;;;;;5.72;3.65;;;25.40;64.80;;;;;;5012849;28;20052;-66
2022/07/25 07:26:32;;;;;;;6.60;3.20;;;25.50;64.90;;;;;;5013311;28;20045;-66
2022/07/25 07:28:57;;;;;;;6.38;3.67;;;25.60;64.70;;;;;;5011336;28;20296;-66
2022/07/25 07:31:23;;;;;;;6.63;3.85;;;25.70;64.50;;;;;;5013831;28;20030;-66
2022/07/25 07:33:49;;;;;;;4.25;3.58;;;25.80;64.20;;;;;;5011878;28;20033;-67
2022/07/25 07:36:14;;;;;;;8.88;4.45;;;25.80;64.10;;;;;;5013816;28;20026;-66
2022/07/25 07:38:40;;;;;;;5.25;3.80;;;25.90;64.00;;;;;;5010499;28;20029;-66
2022/07/25 07:41:06;;;;;;;6.00;3.95;;;26.00;63.90;;;;;;5012673;28;20068;-66
2022/07/25 07:43:32;;;;;;;6.07;3.92;;;26.10;63.80;;;;;;5012795;28;20128;-66
2022/07/25 07:45:59;;;;;;;5.55;3.88;;;26.20;63.80;;;;;;5012666;28;20176;-66
2022/07/25 07:48:29;;;;;;;6.40;4.50;;;26.30;64.20;;;;;;5013075;28;20362;-66
2022/07/25 07:50:54;;;;;;;6.80;4.03;;;26.40;63.80;;;;;;5013639;28;20034;-66
2022/07/25 07:53:20;;;;;;;8.85;4.38;;;26.40;64.00;;;;;;5013473;28;20145;-66
2022/07/25 07:55:53;;;;;;;5.60;4.30;;;26.50;63.60;;;;;;5012815;28;20030;-66
2022/07/25 07:58:20;;;;;;;4.65;4.03;;;26.60;63.60;;;;;;5013200;28;20034;-66
2022/07/25 08:00:47;;;;;;;5.88;3.80;;;26.60;63.10;;;;;;5013356;28;20026;-66
2022/07/25 08:03:18;;;;;;;5.95;4.45;;;26.70;62.90;;;;;;5011992;28;20034;-66
2022/07/25 08:05:44;;;;;;;11.73;4.50;;;26.80;62.80;;;;;;5012897;28;20065;-67
2022/07/25 08:08:12;;;;;;;5.45;4.38;;;26.80;62.50;;;;;;5012835;28;20026;-68
2022/07/25 08:10:44;;;;;;;8.32;4.18;;;26.90;63.00;;;;;;5006436;28;20034;-68
2022/07/25 08:13:17;;;;;;;5.28;4.07;;;27.00;62.70;;;;;;4997888;28;20023;-66
2022/07/25 08:15:45;;;;;;;5.05;4.13;;;27.10;63.00;;;;;;5012336;28;20033;-65
2022/07/25 08:18:11;;;;;;;6.53;4.60;;;27.20;62.90;;;;;;5022700;28;20073;-65
2022/07/25 08:20:37;;;;;;;7.07;4.80;;;27.30;62.70;;;;;;5010773;28;20061;-65
2022/07/25 08:23:03;;;;;;;5.05;4.30;;;27.30;62.50;;;;;;5013740;28;20025;-65
2022/07/25 08:25:30;;;;;;;6.72;4.43;;;27.50;62.80;;;;;;5009997;28;20044;-65
2022/07/25 08:27:55;;;;;;;5.55;4.47;;;27.60;62.60;;;;;;5013647;28;20030;-65
2022/07/25 08:30:21;;;;;;;6.53;4.43;;;27.70;62.70;;;;;;5010294;28;20032;-65
2022/07/25 08:32:55;;;;;;;8.82;4.68;;;27.80;62.40;;;;;;5011900;28;20033;-65
2022/07/25 08:35:22;;;;;;;8.60;4.43;;;27.90;62.90;;;;;;5011262;28;20036;-64
2022/07/25 08:37:48;;;;;;;5.60;4.75;;;27.90;62.40;;;;;;5013908;28;20412;-64
2022/07/25 08:40:15;;;;;;;6.72;4.78;;;28.10;62.50;;;;;;5016076;28;20093;-65
2022/07/25 08:42:41;;;;;;;7.38;4.90;;;28.10;61.80;;;;;;5012313;28;20058;-65
2022/07/25 08:45:11;;;;;;;8.65;5.22;;;28.20;62.10;;;;;;5011338;28;20456;-65
2022/07/25 08:47:38;;;;;;;7.93;5.20;;;28.30;62.00;;;;;;5012364;28;20474;-65
2022/07/25 08:50:07;;;;;;;7.30;4.88;;;28.40;61.90;;;;;;5012341;28;20468;-66
2022/07/25 08:52:34;;;;;;;7.60;5.03;;;28.50;61.90;;;;;;5013091;28;20045;-65
2022/07/25 08:55:04;;;;;;;6.68;4.78;;;28.60;61.90;;;;;;5012374;28;20029;-65
2022/07/25 08:57:29;;;;;;;5.90;5.03;;;28.70;61.60;;;;;;5011884;28;20030;-64
2022/07/25 08:59:58;;;;;;;10.20;6.55;;;28.80;61.50;;;;;;5011380;28;20111;-65
2022/07/25 09:02:28;;;;;;;7.30;5.10;;;28.90;61.50;;;;;;5012878;28;20496;-65
2022/07/25 09:04:56;;;;;;;8.95;5.97;;;29.00;61.60;;;;;;5011878;28;20054;-65
2022/07/25 09:07:39;;;;;;;6.00;5.38;;;29.10;60.90;;;;;;5012701;28;20033;-65
2022/07/25 09:10:17;;;;;;;7.82;5.88;;;29.10;61.10;;;;;;5011570;28;20030;-65
2022/07/25 09:13:00;;;;;;;7.43;6.13;;;29.20;60.80;;;;;;5012833;28;20034;-66
2022/07/25 09:15:30;;;;;;;7.70;5.80;;;29.20;60.70;;;;;;5010964;28;20026;-65
2022/07/25 09:17:57;;;;;;;6.80;5.88;;;29.30;60.20;;;;;;5012785;28;20026;-65
2022/07/25 09:20:24;;;;;;;7.05;6.20;;;29.40;60.50;;;;;;5011595;28;20053;-65
2022/07/25 09:22:49;;;;;;;8.93;6.13;;;29.50;60.80;;;;;;5012363;28;20069;-65
2022/07/25 09:25:20;;;;;;;7.18;6.32;;;29.60;60.60;;;;;;5010946;28;20088;-65
2022/07/25 09:27:46;;;;;;;7.20;6.25;;;29.60;60.60;;;;;;5011671;28;20022;-65
2022/07/25 09:30:15;;;;;;;8.68;6.18;;;29.70;60.00;;;;;;5011364;28;20518;-65
2022/07/25 09:32:41;;;;;;;6.45;5.57;;;29.70;60.30;;;;;;5012203;28;20054;-65
2022/07/25 09:35:07;;;;;;;7.07;5.95;;;29.90;60.20;;;;;;5011611;28;20481;-65
2022/07/25 09:37:32;;;;;;;8.90;6.05;;;29.90;59.90;;;;;;5012121;28;20105;-65
2022/07/25 09:39:58;;;;;;;8.98;5.80;;;30.00;60.20;;;;;;5011531;28;20029;-65
2022/07/25 09:42:26;;;;;;;7.68;5.40;;;30.10;60.30;;;;;;5012159;28;20054;-65
2022/07/25 09:45:06;;;;;;;10.73;5.97;;;30.20;60.50;;;;;;5010022;28;20036;-66
2022/07/25 09:47:34;;;;;;;7.80;6.25;;;30.20;59.70;;;;;;5012039;28;20088;-65
2022/07/25 09:50:00;;;;;;;7.40;6.50;;;30.30;59.90;;;;;;5011608;28;20382;-65
2022/07/25 09:52:26;;;;;;;7.47;5.97;;;30.40;59.60;;;;;;5012033;28;20036;-65
2022/07/25 09:54:53;;;;;;;7.55;6.45;;;30.50;59.70;;;;;;5010736;28;20044;-65
2022/07/25 09:57:20;;;;;;;6.72;6.03;;;30.60;60.00;;;;;;5010800;28;20045;-65
2022/07/25 09:59:46;;;;;;;6.90;6.03;;;30.70;59.70;;;;;;5011475;28;20119;-64
2022/07/25 10:02:32;;;;;;;7.07;6.35;;;30.80;59.40;;;;;;5010526;28;20113;-66
2022/07/25 10:05:19;;;;;;;6.63;5.93;;;30.90;59.50;;;;;;5011039;28;20088;-65
2022/07/25 10:07:49;;;;;;;8.30;6.47;;;31.00;59.10;;;;;;5012246;28;20128;-65
2022/07/25 10:10:25;;;;;;;7.47;6.78;;;31.10;58.60;;;;;;5011168;28;20060;-64
2022/07/25 10:13:09;;;;;;;6.65;6.05;;;31.20;58.30;;;;;;4992197;28;20109;-64
2022/07/25 10:15:48;;;;;;;8.50;6.00;;;31.20;58.20;;;;;;5008594;28;20030;-65
2022/07/25 10:18:15;;;;;;;8.23;6.47;;;31.30;58.10;;;;;;5011193;28;20034;-64
2022/07/25 10:20:42;;;;;;;9.13;6.50;;;31.40;57.70;;;;;;5010968;28;20447;-65
2022/07/25 10:23:23;;;;;;;8.70;6.18;;;31.50;57.60;;;;;;5011925;28;20113;-66
2022/07/25 10:26:19;;;;;;;8.63;6.47;;;31.60;57.50;;;;;;5010198;28;20076;-66
2022/07/25 10:28:49;;;;;;;8.15;6.72;;;31.60;57.30;;;;;;5008583;28;22186;-65
2022/07/25 10:31:23;;;;;;;8.68;6.72;;;31.70;56.60;;;;;;5010745;28;20042;-65
2022/07/25 10:34:00;;;;;;;8.43;6.65;;;31.80;56.80;;;;;;5011932;28;20022;-65
2022/07/25 10:36:31;;;;;;;7.07;6.25;;;31.80;56.70;;;;;;5011613;28;20377;-66
2022/07/25 10:38:59;;;;;;;8.30;6.75;;;31.90;56.20;;;;;;5009339;28;20041;-66
2022/07/25 10:41:25;;;;;;;7.60;6.78;;;32.00;56.10;;;;;;5010526;28;20380;-65
2022/07/25 10:43:51;;;;;;;6.82;6.10;;;32.00;55.70;;;;;;5010823;28;20025;-65
2022/07/25 10:46:21;;;;;;;8.18;7.10;;;32.00;55.30;;;;;;5010708;28;20037;-65
2022/07/25 10:49:01;;;;;;;7.05;6.35;;;32.00;55.00;;;;;;5009417;28;20049;-65
2022/07/25 10:51:33;;;;;;;7.47;6.53;;;32.10;55.10;;;;;;5011517;28;20419;-64
2022/07/25 10:53:59;;;;;;;8.85;7.13;;;32.10;55.20;;;;;;5010623;28;20042;-64
2022/07/25 10:56:27;;;;;;;8.23;6.80;;;32.20;54.90;;;;;;5011049;28;20505;-63
2022/07/25 10:59:00;;;;;;;7.13;6.43;;;32.20;54.80;;;;;;5010776;28;20058;-64
2022/07/25 11:01:31;;;;;;;7.53;6.80;;;32.30;54.70;;;;;;5011251;28;20389;-65
2022/07/25 11:04:03;;;;;;;7.30;6.60;;;32.40;54.70;;;;;;5010485;28;20121;-65
2022/07/25 11:06:38;;;;;;;7.22;6.53;;;32.50;54.50;;;;;;5011304;28;20378;-65
2022/07/25 11:09:23;;;;;;;8.07;6.93;;;32.60;54.30;;;;;;5012332;28;20048;-64
2022/07/25 11:11:52;;;;;;;10.80;7.45;;;32.70;53.90;;;;;;5015093;28;20377;-65
2022/07/25 11:14:21;;;;;;;7.80;6.35;;;32.80;53.80;;;;;;5012672;28;20018;-64
2022/07/25 11:16:49;;;;;;;13.20;7.82;;;32.80;53.60;;;;;;5014758;28;20030;-65
2022/07/25 11:19:26;;;;;;;8.30;7.00;;;32.90;53.50;;;;;;5012894;28;20025;-64
2022/07/25 11:21:57;;;;;;;8.18;6.63;;;32.90;53.70;;;;;;5013872;28;20482;-65
2022/07/25 11:24:43;;;;;;;7.43;6.72;;;33.10;53.20;;;;;;5013931;28;20066;-65
2022/07/25 11:27:11;;;;;;;10.63;7.50;;;33.10;53.00;;;;;;4998115;28;20528;-65
2022/07/25 11:29:38;;;;;;;11.68;6.28;;;33.10;52.80;;;;;;5003435;28;20523;-66
2022/07/25 11:32:09;;;;;;;6.82;6.13;;;33.20;52.70;;;;;;5013294;28;20029;-65
2022/07/25 11:34:44;;;;;;;7.88;6.82;;;33.30;52.30;;;;;;5013718;28;20030;-65
2022/07/25 11:37:12;;;;;;;6.88;6.18;;;33.40;52.10;;;;;;5014747;28;20478;-65
2022/07/25 11:39:41;;;;;;;8.63;6.30;;;33.50;52.10;;;;;;5011643;28;20045;-65
2022/07/25 11:42:11;;;;;;;7.57;5.97;;;33.50;52.10;;;;;;5014349;28;20033;-65
2022/07/25 11:44:46;;;;;;;7.63;6.82;;;33.50;51.40;;;;;;5013559;28;20026;-65
2022/07/25 11:47:24;;;;;;;8.20;7.28;;;33.50;51.30;;;;;;5014583;28;20083;-65
2022/07/25 11:49:51;;;;;;;7.03;5.97;;;33.60;51.20;;;;;;5013356;28;20034;-65
2022/07/25 11:52:21;;;;;;;7.90;6.30;;;33.60;51.30;;;;;;5013803;28;20040;-65
2022/07/25 11:54:56;;;;;;;7.75;6.88;;;33.50;51.20;;;;;;5013319;28;20112;-65
2022/07/25 11:57:30;;;;;;;6.57;5.90;;;33.50;50.90;;;;;;5014008;28;20026;-65
2022/07/25 11:59:59;;;;;;;8.73;6.03;;;33.50;50.60;;;;;;5013348;28;20465;-65
2022/07/25 12:02:30;;;;;;;7.40;6.35;;;33.60;50.60;;;;;;5012845;28;20038;-65
2022/07/25 12:05:01;;;;;;;7.45;6.63;;;33.60;51.30;;;;;;5012955;28;20046;-65
2022/07/25 12:07:39;;;;;;;8.15;6.90;;;33.60;51.10;;;;;;5013748;28;20026;-65
2022/07/25 12:10:14;;;;;;;8.32;6.32;;;33.70;51.20;;;;;;5013024;28;20034;-64
2022/07/25 12:12:47;;;;;;;7.68;6.55;;;33.70;50.60;;;;;;5011846;28;20036;-65
2022/07/25 12:15:16;;;;;;;8.07;7.25;;;33.80;50.50;;;;;;5012873;28;20038;-65
2022/07/25 12:17:42;;;;;;;7.35;6.63;;;33.90;50.70;;;;;;5012687;28;20040;-65
2022/07/25 12:20:33;;;;;;;7.85;6.75;;;33.90;50.30;;;;;;5012769;28;20408;-64
2022/07/25 12:23:03;;;;;;;8.25;7.30;;;34.00;50.50;;;;;;5012955;28;20036;-65
2022/07/25 12:25:30;;;;;;;7.35;6.47;;;34.00;50.00;;;;;;5012295;28;20032;-65
2022/07/25 12:27:57;;;;;;;8.48;7.55;;;34.00;49.80;;;;;;5012494;28;20187;-65
2022/07/25 12:30:24;;;;;;;8.10;7.30;;;34.10;49.80;;;;;;5012613;28;20425;-65
2022/07/25 12:32:50;;;;;;;8.18;6.78;;;34.10;49.70;;;;;;5013640;28;20030;-65
2022/07/25 12:35:15;;;;;;;7.97;7.18;;;34.20;49.70;;;;;;5011322;28;20030;-65
2022/07/25 12:37:42;;;;;;;10.57;7.78;;;34.30;49.50;;;;;;5011142;28;20121;-65
2022/07/25 12:40:11;;;;;;;8.52;6.93;;;34.30;49.20;;;;;;5012041;28;20084;-65
2022/07/25 12:42:37;;;;;;;8.40;6.57;;;34.30;48.80;;;;;;5011896;28;20030;-65
2022/07/25 12:45:03;;;;;;;8.88;7.75;;;34.40;49.10;;;;;;5012963;28;20030;-66
2022/07/25 12:47:29;;;;;;;8.52;7.13;;;34.40;49.00;;;;;;5012243;28;20042;-64